• Join FlightAware (Why Join?)
  • Login
  • US Flag 
07:33AM EDT


 

Airport Tracker/Info


-or-


 

Live Flight TrackerFlight Track Log ✈ EJA831 ✈ 22-Jul-2013 ✈ KMSY - KCHA

Flight Track Log - Related Links

Times and Time Zones

All times are in EDT time to prevent confusion due to time zone crossing. See the EJA831 flight status page for this flight to view local times or setup timezone preferences in your user account.

Time Position Orientation Groundspeed Altitude Reporting Facility
EDT Latitude Longitude Course Direction KTS MPH feet Rate Location/Type
02:28PM 29.9956 -90.2794 281° West 158 182 600  Level Houston Center
02:28PM 30.0000 -90.3047 281° West 210 242 1,900 2,880 Climbing Houston Center
02:29PM 30.0539 -90.3331 336° Northwest 289 333 5,200 3,840 Climbing Houston Center
02:30PM 30.1242 -90.2561 43° Northeast 286 329 9,900 3,900 Climbing Houston Center
02:31PM 30.1878 -90.1975 39° Northeast 289 333 13,300 3,060 Climbing Houston Center
02:32PM 30.2503 -90.1306 43° Northeast 302 348 16,300 2,400 Climbing Houston Center
02:33PM 30.3147 -90.0544 46° Northeast 326 375 18,300 2,040 Climbing Houston Center
02:34PM 30.3803 -89.9722 47° Northeast 343 395 20,600 2,160 Climbing Houston Center
02:35PM 30.4478 -89.8894 47° Northeast 346 398 22,800 1,980 Climbing Houston Center
02:36PM 30.5169 -89.8056 46° Northeast 352 405 24,700 1,800 Climbing Houston Center
02:38PM 30.5844 -89.7219 47° Northeast 353 406 26,600 1,560 Climbing Houston Center
02:39PM 30.6531 -89.6339 48° Northeast 363 418 28,000 1,500 Climbing Houston Center
02:40PM 30.7356 -89.5231 49° Northeast 376 433 29,700 1,440 Climbing Houston Center
02:41PM 30.8042 -89.4289 50° Northeast 380 437 31,000 1,260 Climbing Houston Center
02:42PM 30.8714 -89.3322 51° Northeast 384 442 32,300 1,380 Climbing Houston Center
02:43PM 30.9361 -89.2328 53° Northeast 385 443 33,900 1,500 Climbing Houston Center
02:44PM 31.0042 -89.1425 49° Northeast 374 430 35,500 1,320 Climbing Houston Center
02:45PM 31.0939 -89.0844 29° Northeast 368 423 36,700 720 Climbing Houston Center
02:46PM 31.1800 -89.0111 36° Northeast 380 437 37,000 120 Climbing Houston Center
02:47PM 31.2847 -88.9267 35° Northeast 409 471 37,000  Level Houston Center
02:48PM 31.3822 -88.8461 35° Northeast 423 487 37,000  Level Houston Center
02:49PM 31.4692 -88.7492 44° Northeast 432 497 37,000  Level Houston Center
02:50PM 31.5475 -88.6525 46° Northeast 409 471 37,000  Level Houston Center
02:52PM 31.7194 -88.5211 33° Northeast 393 452 37,000  Level Atlanta Center
02:53PM 31.8097 -88.4547 32° Northeast 387 445 37,000 -60 Level Atlanta Center
02:54PM 31.9039 -88.3858 32° Northeast 387 445 36,900 -60 Descending Atlanta Center
02:55PM 31.9939 -88.3169 33° Northeast 387 445 36,900  Level Atlanta Center
02:56PM 32.0858 -88.2528 31° Northeast 387 445 37,000  Climbing Atlanta Center
02:57PM 32.1678 -88.1731 39° Northeast 382 440 37,000  Level Atlanta Center
02:58PM 32.2497 -88.0933 39° Northeast 382 440 37,000  Level Atlanta Center
02:59PM 32.3339 -88.0086 40° Northeast 382 440 37,000  Level Atlanta Center
03:00PM 32.4181 -87.9289 39° Northeast 387 445 37,000  Level Atlanta Center
03:01PM 32.4892 -87.8483 44° Northeast 387 445 37,000  Level Atlanta Center
03:02PM 32.5753 -87.7633 40° Northeast 387 445 37,000  Level Atlanta Center
03:03PM 32.6572 -87.6803 40° Northeast 393 452 37,000  Level Atlanta Center
03:04PM 32.7553 -87.6128 30° Northeast 398 458 37,000  Level Atlanta Center
03:05PM 32.8486 -87.5597 26° Northeast 389 448 37,000  Level Atlanta Center
03:06PM 32.9483 -87.5019 26° Northeast 383 441 37,000  Level Atlanta Center
03:07PM 33.0397 -87.4411 29° Northeast 375 432 37,000 -240 Level Atlanta Center
03:08PM 33.1353 -87.3828 27° Northeast 375 432 36,600 -780 Descending Atlanta Center
03:09PM 33.2369 -87.3222 26° Northeast 381 438 35,500 -840 Descending Atlanta Center
03:10PM 33.3389 -87.2564 28° Northeast 400 460 35,000 -300 Descending Atlanta Center
03:11PM 33.4408 -87.1953 27° Northeast 400 460 35,000 -780 Level Atlanta Center
03:12PM 33.5386 -87.1242 31° Northeast 405 466 33,500 -1,020 Descending Atlanta Center
03:13PM 33.6158 -87.0347 44° Northeast 411 473 33,000 -300 Descending Atlanta Center
03:14PM 33.7106 -86.9156 46° Northeast 411 473 33,000  Level Atlanta Center
03:15PM 33.7900 -86.8208 45° Northeast 400 460 33,000 -60 Level Atlanta Center
03:16PM 33.8653 -86.7206 48° Northeast 400 460 32,900 -840 Descending Atlanta Center
03:17PM 33.9511 -86.6156 45° Northeast 406 467 31,400 -1,740 Descending Atlanta Center
03:18PM 34.0325 -86.5078 48° Northeast 421 484 29,500 -2,160 Descending Atlanta Center
03:19PM 34.1158 -86.4050 46° Northeast 428 493 27,100 -2,400 Descending Atlanta Center
03:20PM 34.1972 -86.2992 47° Northeast 428 493 24,700 -2,460 Descending Atlanta Center
03:21PM 34.2764 -86.1981 47° Northeast 428 493 22,200 -2,400 Descending Atlanta Center
03:22PM 34.3531 -86.0994 47° Northeast 411 473 19,900 -1,620 Descending Atlanta Center
03:23PM 34.4256 -86.0031 48° Northeast 396 456 19,000 -1,260 Descending Atlanta Center
03:24PM 34.5022 -85.9064 46° Northeast 391 450 17,400 -1,560 Descending Atlanta Center
03:25PM 34.5619 -85.8297 47° Northeast 391 450 15,900 -1,800 Descending Atlanta Center
03:26PM 34.6383 -85.7353 45° Northeast 376 433 13,800 -2,040 Descending Atlanta Center
03:27PM 34.7125 -85.6561 41° Northeast 358 412 11,900 -1,920 Descending Atlanta Center
03:28PM 34.7864 -85.5917 36° Northeast 338 389 10,000 -1,800 Descending Atlanta Center
03:29PM 34.8517 -85.5322 37° Northeast 316 364 8,300 -1,800 Descending Atlanta Center
03:30PM 34.9214 -85.4700 36° Northeast 304 350 6,400 -2,040 Descending Atlanta Center
03:31PM 34.9783 -85.4128 39° Northeast 285 328 4,300 -1,440 Descending Atlanta Center
03:32PM 35.0331 -85.3603 38° Northeast 265 305 3,600 -540 Descending Atlanta Center
03:33PM 35.0775 -85.3078 44° Northeast 239 275 3,300 -660 Descending Atlanta Center
03:34PM 35.0844 -85.2419 83° East 200 230 2,300 -1,020 Descending Atlanta Center
03:36PM 35.0333 -85.2000 39° Northeast  Level FlightAware Approximate
03:43PM 35.0352 -85.2036 39° Northeast  Level Estimated
03:44PM 35.0333 -85.2000 39° Northeast  Level FlightAware Approximate